sensor_id;sensor_type;location;lat;lon;timestamp;P1;durP1;ratioP1;P2;durP2;ratioP2
52564;SDS011;38460;53.106;7.004;2022-07-09T00:00:05;8.32;;;4.63;;
52564;SDS011;38460;53.106;7.004;2022-07-09T00:02:32;6.25;;;3.47;;
52564;SDS011;38460;53.106;7.004;2022-07-09T00:04:59;6.63;;;3.75;;
52564;SDS011;38460;53.106;7.004;2022-07-09T00:07:25;7.30;;;4.07;;
52564;SDS011;38460;53.106;7.004;2022-07-09T00:09:52;7.82;;;3.75;;
52564;SDS011;38460;53.106;7.004;2022-07-09T00:12:17;8.50;;;4.30;;
52564;SDS011;38460;53.106;7.004;2022-07-09T00:14:44;7.03;;;3.90;;
52564;SDS011;38460;53.106;7.004;2022-07-09T00:17:09;6.47;;;4.25;;
52564;SDS011;38460;53.106;7.004;2022-07-09T00:19:35;10.50;;;4.95;;
52564;SDS011;38460;53.106;7.004;2022-07-09T00:22:01;9.25;;;4.93;;
52564;SDS011;38460;53.106;7.004;2022-07-09T00:24:27;7.65;;;4.47;;
52564;SDS011;38460;53.106;7.004;2022-07-09T00:26:53;8.43;;;4.85;;
52564;SDS011;38460;53.106;7.004;2022-07-09T00:29:19;9.98;;;5.88;;
52564;SDS011;38460;53.106;7.004;2022-07-09T00:31:45;7.68;;;5.28;;
52564;SDS011;38460;53.106;7.004;2022-07-09T00:34:11;9.43;;;4.57;;
52564;SDS011;38460;53.106;7.004;2022-07-09T00:36:37;10.60;;;5.35;;
52564;SDS011;38460;53.106;7.004;2022-07-09T00:39:03;12.45;;;5.70;;
52564;SDS011;38460;53.106;7.004;2022-07-09T00:41:29;10.93;;;5.80;;
52564;SDS011;38460;53.106;7.004;2022-07-09T00:43:55;10.38;;;5.50;;
52564;SDS011;38460;53.106;7.004;2022-07-09T00:46:21;12.25;;;5.63;;
52564;SDS011;38460;53.106;7.004;2022-07-09T00:48:47;14.43;;;6.75;;
52564;SDS011;38460;53.106;7.004;2022-07-09T00:51:13;11.13;;;6.22;;
52564;SDS011;38460;53.106;7.004;2022-07-09T00:53:39;11.45;;;6.07;;
52564;SDS011;38460;53.106;7.004;2022-07-09T00:56:06;11.32;;;6.45;;
52564;SDS011;38460;53.106;7.004;2022-07-09T00:58:33;14.88;;;7.05;;
52564;SDS011;38460;53.106;7.004;2022-07-09T01:01:00;16.27;;;6.43;;
52564;SDS011;38460;53.106;7.004;2022-07-09T01:03:26;8.50;;;5.72;;
52564;SDS011;38460;53.106;7.004;2022-07-09T01:05:52;10.48;;;6.30;;
52564;SDS011;38460;53.106;7.004;2022-07-09T01:08:18;13.40;;;6.07;;
52564;SDS011;38460;53.106;7.004;2022-07-09T01:10:44;14.20;;;7.22;;
52564;SDS011;38460;53.106;7.004;2022-07-09T01:13:11;11.48;;;6.50;;
52564;SDS011;38460;53.106;7.004;2022-07-09T01:15:36;10.98;;;6.00;;
52564;SDS011;38460;53.106;7.004;2022-07-09T01:18:03;14.65;;;6.80;;
52564;SDS011;38460;53.106;7.004;2022-07-09T01:20:28;11.35;;;5.97;;
52564;SDS011;38460;53.106;7.004;2022-07-09T01:22:55;9.95;;;6.22;;
52564;SDS011;38460;53.106;7.004;2022-07-09T01:25:33;10.38;;;6.15;;
52564;SDS011;38460;53.106;7.004;2022-07-09T01:28:04;11.52;;;6.45;;
52564;SDS011;38460;53.106;7.004;2022-07-09T01:30:32;12.07;;;6.32;;
52564;SDS011;38460;53.106;7.004;2022-07-09T01:32:59;9.48;;;6.28;;
52564;SDS011;38460;53.106;7.004;2022-07-09T01:35:25;8.63;;;5.93;;
52564;SDS011;38460;53.106;7.004;2022-07-09T01:37:51;8.50;;;6.30;;
52564;SDS011;38460;53.106;7.004;2022-07-09T01:40:18;11.57;;;7.43;;
52564;SDS011;38460;53.106;7.004;2022-07-09T01:42:45;10.52;;;5.70;;
52564;SDS011;38460;53.106;7.004;2022-07-09T01:45:11;10.63;;;6.82;;
52564;SDS011;38460;53.106;7.004;2022-07-09T01:47:37;13.20;;;7.80;;
52564;SDS011;38460;53.106;7.004;2022-07-09T01:50:03;12.35;;;7.40;;
52564;SDS011;38460;53.106;7.004;2022-07-09T01:52:29;11.95;;;6.55;;
52564;SDS011;38460;53.106;7.004;2022-07-09T01:54:55;12.05;;;6.50;;
52564;SDS011;38460;53.106;7.004;2022-07-09T01:57:21;12.93;;;7.88;;
52564;SDS011;38460;53.106;7.004;2022-07-09T01:59:47;9.63;;;7.38;;
52564;SDS011;38460;53.106;7.004;2022-07-09T02:02:13;15.50;;;7.32;;
52564;SDS011;38460;53.106;7.004;2022-07-09T02:04:38;14.13;;;7.53;;
52564;SDS011;38460;53.106;7.004;2022-07-09T02:07:04;15.18;;;8.30;;
52564;SDS011;38460;53.106;7.004;2022-07-09T02:09:30;10.10;;;6.38;;
52564;SDS011;38460;53.106;7.004;2022-07-09T02:11:55;13.50;;;7.80;;
52564;SDS011;38460;53.106;7.004;2022-07-09T02:14:21;11.93;;;6.88;;
52564;SDS011;38460;53.106;7.004;2022-07-09T02:16:47;11.88;;;6.82;;
52564;SDS011;38460;53.106;7.004;2022-07-09T02:19:14;13.77;;;7.82;;
52564;SDS011;38460;53.106;7.004;2022-07-09T02:21:39;9.48;;;6.60;;
52564;SDS011;38460;53.106;7.004;2022-07-09T02:24:05;14.48;;;7.53;;
52564;SDS011;38460;53.106;7.004;2022-07-09T02:26:32;14.45;;;6.50;;
52564;SDS011;38460;53.106;7.004;2022-07-09T02:28:58;12.40;;;6.88;;
52564;SDS011;38460;53.106;7.004;2022-07-09T02:31:24;12.65;;;6.43;;
52564;SDS011;38460;53.106;7.004;2022-07-09T02:33:51;12.88;;;6.28;;
52564;SDS011;38460;53.106;7.004;2022-07-09T02:36:17;9.70;;;7.68;;
52564;SDS011;38460;53.106;7.004;2022-07-09T02:38:43;14.98;;;7.15;;
52564;SDS011;38460;53.106;7.004;2022-07-09T02:41:09;13.20;;;6.95;;
52564;SDS011;38460;53.106;7.004;2022-07-09T02:43:35;12.23;;;7.47;;
52564;SDS011;38460;53.106;7.004;2022-07-09T02:46:01;13.85;;;8.45;;
52564;SDS011;38460;53.106;7.004;2022-07-09T02:48:29;15.63;;;7.88;;
52564;SDS011;38460;53.106;7.004;2022-07-09T02:50:54;12.50;;;6.60;;
52564;SDS011;38460;53.106;7.004;2022-07-09T02:53:20;12.63;;;7.25;;
52564;SDS011;38460;53.106;7.004;2022-07-09T02:55:46;10.43;;;6.47;;
52564;SDS011;38460;53.106;7.004;2022-07-09T02:58:12;15.75;;;8.27;;
52564;SDS011;38460;53.106;7.004;2022-07-09T03:00:38;14.32;;;7.20;;
52564;SDS011;38460;53.106;7.004;2022-07-09T03:03:05;15.48;;;7.88;;
52564;SDS011;38460;53.106;7.004;2022-07-09T03:05:31;12.77;;;8.07;;
52564;SDS011;38460;53.106;7.004;2022-07-09T03:07:57;14.40;;;8.48;;
52564;SDS011;38460;53.106;7.004;2022-07-09T03:10:23;15.18;;;7.60;;
52564;SDS011;38460;53.106;7.004;2022-07-09T03:12:49;15.40;;;7.88;;
52564;SDS011;38460;53.106;7.004;2022-07-09T03:15:14;11.35;;;7.07;;
52564;SDS011;38460;53.106;7.004;2022-07-09T03:17:44;13.63;;;8.27;;
52564;SDS011;38460;53.106;7.004;2022-07-09T03:20:11;14.82;;;9.18;;
52564;SDS011;38460;53.106;7.004;2022-07-09T03:22:37;15.57;;;7.70;;
52564;SDS011;38460;53.106;7.004;2022-07-09T03:25:04;14.18;;;7.60;;
52564;SDS011;38460;53.106;7.004;2022-07-09T03:27:30;10.05;;;7.30;;
52564;SDS011;38460;53.106;7.004;2022-07-09T03:29:56;11.88;;;6.70;;
52564;SDS011;38460;53.106;7.004;2022-07-09T03:32:22;14.88;;;6.85;;
52564;SDS011;38460;53.106;7.004;2022-07-09T03:34:48;13.10;;;7.00;;
52564;SDS011;38460;53.106;7.004;2022-07-09T03:37:14;10.27;;;7.18;;
52564;SDS011;38460;53.106;7.004;2022-07-09T03:39:39;12.82;;;7.95;;
52564;SDS011;38460;53.106;7.004;2022-07-09T03:42:06;14.90;;;6.93;;
52564;SDS011;38460;53.106;7.004;2022-07-09T03:44:32;12.45;;;7.18;;
52564;SDS011;38460;53.106;7.004;2022-07-09T03:46:59;11.63;;;6.70;;
52564;SDS011;38460;53.106;7.004;2022-07-09T03:49:26;11.63;;;7.28;;
52564;SDS011;38460;53.106;7.004;2022-07-09T03:51:52;12.48;;;6.50;;
52564;SDS011;38460;53.106;7.004;2022-07-09T03:54:18;9.23;;;5.97;;
52564;SDS011;38460;53.106;7.004;2022-07-09T03:56:44;11.00;;;6.15;;
52564;SDS011;38460;53.106;7.004;2022-07-09T03:59:09;16.45;;;7.25;;
52564;SDS011;38460;53.106;7.004;2022-07-09T04:01:35;9.48;;;5.55;;
52564;SDS011;38460;53.106;7.004;2022-07-09T04:04:01;11.52;;;7.18;;
52564;SDS011;38460;53.106;7.004;2022-07-09T04:06:27;12.63;;;6.35;;
52564;SDS011;38460;53.106;7.004;2022-07-09T04:08:52;10.52;;;5.82;;
52564;SDS011;38460;53.106;7.004;2022-07-09T04:11:18;9.23;;;6.28;;
52564;SDS011;38460;53.106;7.004;2022-07-09T04:13:44;14.15;;;7.57;;
52564;SDS011;38460;53.106;7.004;2022-07-09T04:16:09;14.65;;;7.72;;
52564;SDS011;38460;53.106;7.004;2022-07-09T04:18:35;14.40;;;6.40;;
52564;SDS011;38460;53.106;7.004;2022-07-09T04:21:01;14.82;;;6.88;;
52564;SDS011;38460;53.106;7.004;2022-07-09T04:23:27;10.27;;;6.18;;
52564;SDS011;38460;53.106;7.004;2022-07-09T04:25:53;10.73;;;5.72;;
52564;SDS011;38460;53.106;7.004;2022-07-09T04:28:19;11.50;;;5.97;;
52564;SDS011;38460;53.106;7.004;2022-07-09T04:30:45;10.38;;;6.07;;
52564;SDS011;38460;53.106;7.004;2022-07-09T04:33:11;11.27;;;6.78;;
52564;SDS011;38460;53.106;7.004;2022-07-09T04:35:37;11.75;;;6.30;;
52564;SDS011;38460;53.106;7.004;2022-07-09T04:38:03;10.60;;;5.72;;
52564;SDS011;38460;53.106;7.004;2022-07-09T04:40:29;16.70;;;7.57;;
52564;SDS011;38460;53.106;7.004;2022-07-09T04:42:55;13.65;;;6.13;;
52564;SDS011;38460;53.106;7.004;2022-07-09T04:45:21;13.18;;;6.70;;
52564;SDS011;38460;53.106;7.004;2022-07-09T04:47:47;12.57;;;7.22;;
52564;SDS011;38460;53.106;7.004;2022-07-09T04:50:13;15.38;;;6.85;;
52564;SDS011;38460;53.106;7.004;2022-07-09T04:52:40;12.68;;;6.35;;
52564;SDS011;38460;53.106;7.004;2022-07-09T04:55:06;11.75;;;6.88;;
52564;SDS011;38460;53.106;7.004;2022-07-09T04:57:32;13.10;;;6.72;;
52564;SDS011;38460;53.106;7.004;2022-07-09T04:59:58;9.32;;;5.88;;
52564;SDS011;38460;53.106;7.004;2022-07-09T05:02:25;9.25;;;5.93;;
52564;SDS011;38460;53.106;7.004;2022-07-09T05:04:51;11.80;;;6.70;;
52564;SDS011;38460;53.106;7.004;2022-07-09T05:07:17;12.43;;;5.97;;
52564;SDS011;38460;53.106;7.004;2022-07-09T05:09:43;12.38;;;5.82;;
52564;SDS011;38460;53.106;7.004;2022-07-09T05:12:09;9.27;;;5.53;;
52564;SDS011;38460;53.106;7.004;2022-07-09T05:14:38;11.98;;;5.72;;
52564;SDS011;38460;53.106;7.004;2022-07-09T05:17:04;10.40;;;5.68;;
52564;SDS011;38460;53.106;7.004;2022-07-09T05:19:31;11.95;;;5.60;;
52564;SDS011;38460;53.106;7.004;2022-07-09T05:21:57;12.30;;;6.05;;
52564;SDS011;38460;53.106;7.004;2022-07-09T05:24:23;13.88;;;5.95;;
52564;SDS011;38460;53.106;7.004;2022-07-09T05:26:49;9.55;;;5.78;;
52564;SDS011;38460;53.106;7.004;2022-07-09T05:29:15;12.70;;;6.05;;
52564;SDS011;38460;53.106;7.004;2022-07-09T05:31:41;14.50;;;6.72;;
52564;SDS011;38460;53.106;7.004;2022-07-09T05:34:07;13.27;;;6.15;;
52564;SDS011;38460;53.106;7.004;2022-07-09T05:36:33;9.57;;;6.38;;
52564;SDS011;38460;53.106;7.004;2022-07-09T05:38:59;10.95;;;6.75;;
52564;SDS011;38460;53.106;7.004;2022-07-09T05:41:25;14.70;;;5.85;;
52564;SDS011;38460;53.106;7.004;2022-07-09T05:43:52;13.13;;;6.43;;
52564;SDS011;38460;53.106;7.004;2022-07-09T05:46:18;12.50;;;5.78;;
52564;SDS011;38460;53.106;7.004;2022-07-09T05:48:44;11.55;;;5.65;;
52564;SDS011;38460;53.106;7.004;2022-07-09T05:51:09;13.32;;;6.93;;
52564;SDS011;38460;53.106;7.004;2022-07-09T05:53:35;11.10;;;5.93;;
52564;SDS011;38460;53.106;7.004;2022-07-09T05:56:01;9.20;;;5.47;;
52564;SDS011;38460;53.106;7.004;2022-07-09T05:58:26;11.90;;;5.93;;
52564;SDS011;38460;53.106;7.004;2022-07-09T06:00:52;13.02;;;6.25;;
52564;SDS011;38460;53.106;7.004;2022-07-09T06:03:18;10.27;;;5.63;;
52564;SDS011;38460;53.106;7.004;2022-07-09T06:05:43;12.82;;;6.13;;
52564;SDS011;38460;53.106;7.004;2022-07-09T06:08:09;11.88;;;5.38;;
52564;SDS011;38460;53.106;7.004;2022-07-09T06:10:35;10.60;;;5.50;;
52564;SDS011;38460;53.106;7.004;2022-07-09T06:13:01;12.93;;;5.35;;
52564;SDS011;38460;53.106;7.004;2022-07-09T06:15:27;10.25;;;5.38;;
52564;SDS011;38460;53.106;7.004;2022-07-09T06:17:53;11.13;;;4.60;;
52564;SDS011;38460;53.106;7.004;2022-07-09T06:20:18;8.40;;;5.00;;
52564;SDS011;38460;53.106;7.004;2022-07-09T06:22:44;9.30;;;5.38;;
52564;SDS011;38460;53.106;7.004;2022-07-09T06:25:11;11.73;;;5.38;;
52564;SDS011;38460;53.106;7.004;2022-07-09T06:27:37;13.45;;;5.63;;
52564;SDS011;38460;53.106;7.004;2022-07-09T06:30:03;10.15;;;4.63;;
52564;SDS011;38460;53.106;7.004;2022-07-09T06:32:29;10.50;;;5.22;;
52564;SDS011;38460;53.106;7.004;2022-07-09T06:34:55;8.48;;;5.50;;
52564;SDS011;38460;53.106;7.004;2022-07-09T06:37:21;8.68;;;5.05;;
52564;SDS011;38460;53.106;7.004;2022-07-09T06:39:46;8.98;;;5.70;;
52564;SDS011;38460;53.106;7.004;2022-07-09T06:42:14;13.13;;;5.57;;
52564;SDS011;38460;53.106;7.004;2022-07-09T06:44:41;10.48;;;5.32;;
52564;SDS011;38460;53.106;7.004;2022-07-09T06:47:07;11.50;;;4.78;;
52564;SDS011;38460;53.106;7.004;2022-07-09T06:49:34;11.63;;;5.13;;
52564;SDS011;38460;53.106;7.004;2022-07-09T06:52:00;8.30;;;5.18;;
52564;SDS011;38460;53.106;7.004;2022-07-09T06:54:26;10.18;;;5.07;;
52564;SDS011;38460;53.106;7.004;2022-07-09T06:56:51;10.93;;;4.97;;
52564;SDS011;38460;53.106;7.004;2022-07-09T06:59:17;14.88;;;3.70;;
52564;SDS011;38460;53.106;7.004;2022-07-09T07:01:44;9.88;;;4.22;;
52564;SDS011;38460;53.106;7.004;2022-07-09T07:04:10;9.40;;;4.35;;
52564;SDS011;38460;53.106;7.004;2022-07-09T07:06:38;9.18;;;4.32;;
52564;SDS011;38460;53.106;7.004;2022-07-09T07:09:04;5.97;;;3.30;;
52564;SDS011;38460;53.106;7.004;2022-07-09T07:11:30;6.00;;;3.70;;
52564;SDS011;38460;53.106;7.004;2022-07-09T07:13:55;5.97;;;3.47;;
52564;SDS011;38460;53.106;7.004;2022-07-09T07:16:21;7.05;;;4.30;;
52564;SDS011;38460;53.106;7.004;2022-07-09T07:18:47;7.82;;;3.38;;
52564;SDS011;38460;53.106;7.004;2022-07-09T07:21:13;6.20;;;3.60;;
52564;SDS011;38460;53.106;7.004;2022-07-09T07:23:38;9.98;;;4.03;;
52564;SDS011;38460;53.106;7.004;2022-07-09T07:26:04;8.50;;;3.70;;
52564;SDS011;38460;53.106;7.004;2022-07-09T07:28:30;8.13;;;4.13;;
52564;SDS011;38460;53.106;7.004;2022-07-09T07:30:55;8.88;;;3.42;;
52564;SDS011;38460;53.106;7.004;2022-07-09T07:33:21;7.07;;;3.20;;
52564;SDS011;38460;53.106;7.004;2022-07-09T07:35:47;6.95;;;3.50;;
52564;SDS011;38460;53.106;7.004;2022-07-09T07:38:13;7.03;;;3.90;;
52564;SDS011;38460;53.106;7.004;2022-07-09T07:40:39;6.38;;;2.90;;
52564;SDS011;38460;53.106;7.004;2022-07-09T07:43:05;7.57;;;3.63;;
52564;SDS011;38460;53.106;7.004;2022-07-09T07:45:31;16.35;;;6.28;;
52564;SDS011;38460;53.106;7.004;2022-07-09T07:47:57;8.65;;;3.35;;
52564;SDS011;38460;53.106;7.004;2022-07-09T07:50:23;6.32;;;3.10;;
52564;SDS011;38460;53.106;7.004;2022-07-09T07:52:49;8.50;;;3.20;;
52564;SDS011;38460;53.106;7.004;2022-07-09T07:55:15;5.93;;;3.22;;
52564;SDS011;38460;53.106;7.004;2022-07-09T07:57:41;6.03;;;3.00;;
52564;SDS011;38460;53.106;7.004;2022-07-09T08:00:07;7.30;;;3.00;;
52564;SDS011;38460;53.106;7.004;2022-07-09T08:02:33;6.70;;;3.00;;
52564;SDS011;38460;53.106;7.004;2022-07-09T08:04:59;4.88;;;2.78;;
52564;SDS011;38460;53.106;7.004;2022-07-09T08:07:26;6.15;;;2.83;;
52564;SDS011;38460;53.106;7.004;2022-07-09T08:09:52;4.93;;;2.25;;
52564;SDS011;38460;53.106;7.004;2022-07-09T08:12:18;5.82;;;2.38;;
52564;SDS011;38460;53.106;7.004;2022-07-09T08:14:44;3.88;;;1.90;;
52564;SDS011;38460;53.106;7.004;2022-07-09T08:17:10;5.25;;;2.38;;
52564;SDS011;38460;53.106;7.004;2022-07-09T08:19:36;6.05;;;2.03;;
52564;SDS011;38460;53.106;7.004;2022-07-09T08:22:01;5.80;;;2.25;;
52564;SDS011;38460;53.106;7.004;2022-07-09T08:24:27;3.95;;;2.08;;
52564;SDS011;38460;53.106;7.004;2022-07-09T08:26:53;4.53;;;1.90;;
52564;SDS011;38460;53.106;7.004;2022-07-09T08:29:19;6.25;;;2.00;;
52564;SDS011;38460;53.106;7.004;2022-07-09T08:31:45;4.57;;;1.67;;
52564;SDS011;38460;53.106;7.004;2022-07-09T08:34:12;4.47;;;2.10;;
52564;SDS011;38460;53.106;7.004;2022-07-09T08:36:38;5.32;;;2.15;;
52564;SDS011;38460;53.106;7.004;2022-07-09T08:39:03;6.45;;;1.80;;
52564;SDS011;38460;53.106;7.004;2022-07-09T08:41:29;4.15;;;2.30;;
52564;SDS011;38460;53.106;7.004;2022-07-09T08:43:55;3.15;;;1.73;;
52564;SDS011;38460;53.106;7.004;2022-07-09T08:46:21;3.40;;;2.00;;
52564;SDS011;38460;53.106;7.004;2022-07-09T08:48:47;3.78;;;1.67;;
52564;SDS011;38460;53.106;7.004;2022-07-09T08:51:14;5.07;;;1.80;;
52564;SDS011;38460;53.106;7.004;2022-07-09T08:53:41;4.72;;;1.75;;
52564;SDS011;38460;53.106;7.004;2022-07-09T08:56:08;4.03;;;1.55;;
52564;SDS011;38460;53.106;7.004;2022-07-09T08:58:34;6.70;;;1.88;;
52564;SDS011;38460;53.106;7.004;2022-07-09T09:01:00;5.32;;;1.73;;
52564;SDS011;38460;53.106;7.004;2022-07-09T09:03:26;6.20;;;1.63;;
52564;SDS011;38460;53.106;7.004;2022-07-09T09:06:07;3.42;;;1.67;;
52564;SDS011;38460;53.106;7.004;2022-07-09T09:08:35;5.93;;;1.80;;
52564;SDS011;38460;53.106;7.004;2022-07-09T09:11:02;4.95;;;1.80;;
52564;SDS011;38460;53.106;7.004;2022-07-09T09:13:42;6.83;;;2.30;;
52564;SDS011;38460;53.106;7.004;2022-07-09T09:16:10;5.85;;;2.25;;
52564;SDS011;38460;53.106;7.004;2022-07-09T09:18:41;3.40;;;2.00;;
52564;SDS011;38460;53.106;7.004;2022-07-09T09:21:09;3.95;;;2.25;;
52564;SDS011;38460;53.106;7.004;2022-07-09T09:23:48;4.90;;;2.00;;
52564;SDS011;38460;53.106;7.004;2022-07-09T09:26:23;3.60;;;1.80;;
52564;SDS011;38460;53.106;7.004;2022-07-09T09:28:51;5.53;;;2.08;;
52564;SDS011;38460;53.106;7.004;2022-07-09T09:31:22;5.60;;;2.03;;
52564;SDS011;38460;53.106;7.004;2022-07-09T09:34:23;6.47;;;2.50;;
52564;SDS011;38460;53.106;7.004;2022-07-09T09:41:34;4.97;;;1.92;;
52564;SDS011;38460;53.106;7.004;2022-07-09T09:44:03;4.45;;;2.17;;
52564;SDS011;38460;53.106;7.004;2022-07-09T09:46:34;6.28;;;2.22;;
52564;SDS011;38460;53.106;7.004;2022-07-09T09:49:00;4.75;;;1.77;;
52564;SDS011;38460;53.106;7.004;2022-07-09T09:51:31;4.23;;;2.00;;
52564;SDS011;38460;53.106;7.004;2022-07-09T09:53:58;8.23;;;2.00;;
52564;SDS011;38460;53.106;7.004;2022-07-09T09:56:26;6.45;;;2.40;;
52564;SDS011;38460;53.106;7.004;2022-07-09T09:58:54;5.05;;;1.90;;
52564;SDS011;38460;53.106;7.004;2022-07-09T10:01:21;5.07;;;2.17;;
52564;SDS011;38460;53.106;7.004;2022-07-09T10:03:47;6.90;;;2.50;;
52564;SDS011;38460;53.106;7.004;2022-07-09T10:06:13;7.38;;;2.35;;
52564;SDS011;38460;53.106;7.004;2022-07-09T10:08:39;5.93;;;1.73;;
52564;SDS011;38460;53.106;7.004;2022-07-09T10:11:04;4.88;;;1.60;;
52564;SDS011;38460;53.106;7.004;2022-07-09T10:13:31;6.25;;;2.63;;
52564;SDS011;38460;53.106;7.004;2022-07-09T10:15:56;7.30;;;2.15;;
52564;SDS011;38460;53.106;7.004;2022-07-09T10:18:24;10.63;;;2.03;;
52564;SDS011;38460;53.106;7.004;2022-07-09T10:20:54;6.30;;;2.38;;
52564;SDS011;38460;53.106;7.004;2022-07-09T10:25:49;6.35;;;1.85;;
52564;SDS011;38460;53.106;7.004;2022-07-09T10:28:18;5.43;;;1.80;;
52564;SDS011;38460;53.106;7.004;2022-07-09T10:30:45;2.55;;;1.58;;
52564;SDS011;38460;53.106;7.004;2022-07-09T10:33:12;4.03;;;1.67;;
52564;SDS011;38460;53.106;7.004;2022-07-09T10:35:47;4.05;;;1.67;;
52564;SDS011;38460;53.106;7.004;2022-07-09T10:38:17;3.75;;;1.77;;
52564;SDS011;38460;53.106;7.004;2022-07-09T10:40:44;3.88;;;1.75;;
52564;SDS011;38460;53.106;7.004;2022-07-09T10:43:11;5.38;;;2.00;;
52564;SDS011;38460;53.106;7.004;2022-07-09T10:48:11;6.13;;;2.17;;
52564;SDS011;38460;53.106;7.004;2022-07-09T10:50:39;5.55;;;2.30;;
52564;SDS011;38460;53.106;7.004;2022-07-09T10:53:09;5.18;;;2.20;;
52564;SDS011;38460;53.106;7.004;2022-07-09T10:55:36;5.72;;;2.13;;
52564;SDS011;38460;53.106;7.004;2022-07-09T10:58:15;5.68;;;2.20;;
52564;SDS011;38460;53.106;7.004;2022-07-09T11:00:44;4.18;;;2.40;;
52564;SDS011;38460;53.106;7.004;2022-07-09T11:03:23;7.03;;;1.98;;
52564;SDS011;38460;53.106;7.004;2022-07-09T11:05:50;6.28;;;2.58;;
52564;SDS011;38460;53.106;7.004;2022-07-09T11:08:16;5.95;;;2.25;;
52564;SDS011;38460;53.106;7.004;2022-07-09T11:10:42;6.57;;;2.13;;
52564;SDS011;38460;53.106;7.004;2022-07-09T11:13:08;8.18;;;2.90;;
52564;SDS011;38460;53.106;7.004;2022-07-09T11:15:34;7.82;;;2.63;;
52564;SDS011;38460;53.106;7.004;2022-07-09T11:18:09;5.93;;;2.58;;
52564;SDS011;38460;53.106;7.004;2022-07-09T11:20:45;7.10;;;2.15;;
52564;SDS011;38460;53.106;7.004;2022-07-09T11:23:12;6.83;;;2.47;;
52564;SDS011;38460;53.106;7.004;2022-07-09T11:25:39;5.40;;;2.33;;
52564;SDS011;38460;53.106;7.004;2022-07-09T11:28:05;5.35;;;2.30;;
52564;SDS011;38460;53.106;7.004;2022-07-09T11:30:32;8.93;;;2.92;;
52564;SDS011;38460;53.106;7.004;2022-07-09T11:32:58;6.50;;;3.22;;
52564;SDS011;38460;53.106;7.004;2022-07-09T11:35:25;9.13;;;2.50;;
52564;SDS011;38460;53.106;7.004;2022-07-09T11:38:02;9.10;;;2.67;;
52564;SDS011;38460;53.106;7.004;2022-07-09T11:40:29;7.07;;;2.85;;
52564;SDS011;38460;53.106;7.004;2022-07-09T11:42:55;8.98;;;2.78;;
52564;SDS011;38460;53.106;7.004;2022-07-09T11:45:25;8.10;;;2.72;;
52564;SDS011;38460;53.106;7.004;2022-07-09T11:48:06;5.45;;;2.47;;
52564;SDS011;38460;53.106;7.004;2022-07-09T11:50:33;8.68;;;2.72;;
52564;SDS011;38460;53.106;7.004;2022-07-09T11:53:20;8.18;;;2.80;;
52564;SDS011;38460;53.106;7.004;2022-07-09T11:55:56;6.07;;;2.35;;
52564;SDS011;38460;53.106;7.004;2022-07-09T11:58:23;6.60;;;2.17;;
52564;SDS011;38460;53.106;7.004;2022-07-09T12:00:49;5.25;;;2.58;;
52564;SDS011;38460;53.106;7.004;2022-07-09T12:03:22;5.70;;;2.53;;
52564;SDS011;38460;53.106;7.004;2022-07-09T12:05:50;8.90;;;2.05;;
52564;SDS011;38460;53.106;7.004;2022-07-09T12:08:25;6.10;;;2.00;;
52564;SDS011;38460;53.106;7.004;2022-07-09T12:10:52;5.90;;;1.80;;
52564;SDS011;38460;53.106;7.004;2022-07-09T12:13:18;6.40;;;2.20;;
52564;SDS011;38460;53.106;7.004;2022-07-09T12:15:44;5.60;;;1.88;;
52564;SDS011;38460;53.106;7.004;2022-07-09T12:18:10;7.57;;;1.98;;
52564;SDS011;38460;53.106;7.004;2022-07-09T12:20:35;5.13;;;1.67;;
52564;SDS011;38460;53.106;7.004;2022-07-09T12:23:01;6.75;;;2.45;;
52564;SDS011;38460;53.106;7.004;2022-07-09T12:25:27;6.43;;;1.83;;
52564;SDS011;38460;53.106;7.004;2022-07-09T12:27:53;3.00;;;1.52;;
52564;SDS011;38460;53.106;7.004;2022-07-09T12:30:18;5.03;;;1.75;;
52564;SDS011;38460;53.106;7.004;2022-07-09T12:32:45;5.55;;;1.90;;
52564;SDS011;38460;53.106;7.004;2022-07-09T12:35:12;4.15;;;1.70;;
52564;SDS011;38460;53.106;7.004;2022-07-09T12:37:38;4.93;;;1.67;;
52564;SDS011;38460;53.106;7.004;2022-07-09T12:40:05;4.93;;;1.98;;
52564;SDS011;38460;53.106;7.004;2022-07-09T12:42:32;4.45;;;1.20;;
52564;SDS011;38460;53.106;7.004;2022-07-09T12:44:58;7.32;;;1.67;;
52564;SDS011;38460;53.106;7.004;2022-07-09T12:47:24;5.45;;;1.27;;
52564;SDS011;38460;53.106;7.004;2022-07-09T12:49:50;4.55;;;1.40;;
52564;SDS011;38460;53.106;7.004;2022-07-09T12:52:16;3.47;;;1.17;;
52564;SDS011;38460;53.106;7.004;2022-07-09T12:54:41;4.32;;;1.35;;
52564;SDS011;38460;53.106;7.004;2022-07-09T12:57:07;3.35;;;1.50;;
52564;SDS011;38460;53.106;7.004;2022-07-09T12:59:34;4.03;;;1.38;;
52564;SDS011;38460;53.106;7.004;2022-07-09T13:02:00;3.20;;;1.50;;
52564;SDS011;38460;53.106;7.004;2022-07-09T13:04:25;4.05;;;1.23;;
52564;SDS011;38460;53.106;7.004;2022-07-09T13:06:51;3.42;;;1.30;;
52564;SDS011;38460;53.106;7.004;2022-07-09T13:09:18;4.72;;;1.75;;
52564;SDS011;38460;53.106;7.004;2022-07-09T13:11:43;6.40;;;1.30;;
52564;SDS011;38460;53.106;7.004;2022-07-09T13:14:09;4.13;;;2.15;;
52564;SDS011;38460;53.106;7.004;2022-07-09T13:16:35;6.57;;;1.67;;
52564;SDS011;38460;53.106;7.004;2022-07-09T13:19:02;7.13;;;1.67;;
52564;SDS011;38460;53.106;7.004;2022-07-09T13:21:28;4.80;;;1.58;;
52564;SDS011;38460;53.106;7.004;2022-07-09T13:23:55;2.42;;;1.35;;
52564;SDS011;38460;53.106;7.004;2022-07-09T13:26:21;3.78;;;1.20;;
52564;SDS011;38460;53.106;7.004;2022-07-09T13:28:47;2.95;;;1.20;;
52564;SDS011;38460;53.106;7.004;2022-07-09T13:31:13;3.90;;;1.15;;
52564;SDS011;38460;53.106;7.004;2022-07-09T13:33:39;2.95;;;1.23;;
52564;SDS011;38460;53.106;7.004;2022-07-09T13:36:05;6.03;;;1.42;;
52564;SDS011;38460;53.106;7.004;2022-07-09T13:38:31;2.83;;;1.40;;
52564;SDS011;38460;53.106;7.004;2022-07-09T13:40:57;3.25;;;1.30;;
52564;SDS011;38460;53.106;7.004;2022-07-09T13:43:24;3.13;;;1.23;;
52564;SDS011;38460;53.106;7.004;2022-07-09T13:45:51;3.72;;;1.33;;
52564;SDS011;38460;53.106;7.004;2022-07-09T13:48:20;4.70;;;1.35;;
52564;SDS011;38460;53.106;7.004;2022-07-09T13:50:46;2.78;;;1.27;;
52564;SDS011;38460;53.106;7.004;2022-07-09T13:53:12;2.20;;;0.95;;
52564;SDS011;38460;53.106;7.004;2022-07-09T13:55:38;4.53;;;1.00;;
52564;SDS011;38460;53.106;7.004;2022-07-09T13:58:03;2.28;;;1.23;;
52564;SDS011;38460;53.106;7.004;2022-07-09T14:00:29;6.28;;;1.30;;
52564;SDS011;38460;53.106;7.004;2022-07-09T14:02:55;3.38;;;1.33;;
52564;SDS011;38460;53.106;7.004;2022-07-09T14:05:21;2.97;;;1.02;;
52564;SDS011;38460;53.106;7.004;2022-07-09T14:07:47;4.13;;;1.48;;
52564;SDS011;38460;53.106;7.004;2022-07-09T14:10:12;3.65;;;1.10;;
52564;SDS011;38460;53.106;7.004;2022-07-09T14:12:38;4.35;;;1.45;;
52564;SDS011;38460;53.106;7.004;2022-07-09T14:15:04;5.30;;;1.23;;
52564;SDS011;38460;53.106;7.004;2022-07-09T14:17:30;4.25;;;1.15;;
52564;SDS011;38460;53.106;7.004;2022-07-09T14:19:56;4.75;;;1.40;;
52564;SDS011;38460;53.106;7.004;2022-07-09T14:22:24;4.03;;;1.33;;
52564;SDS011;38460;53.106;7.004;2022-07-09T14:24:50;4.45;;;1.30;;
52564;SDS011;38460;53.106;7.004;2022-07-09T14:27:16;3.95;;;1.38;;
52564;SDS011;38460;53.106;7.004;2022-07-09T14:29:42;3.05;;;1.52;;
52564;SDS011;38460;53.106;7.004;2022-07-09T14:32:08;5.55;;;1.48;;
52564;SDS011;38460;53.106;7.004;2022-07-09T14:34:34;7.15;;;1.67;;
52564;SDS011;38460;53.106;7.004;2022-07-09T14:37:00;5.53;;;1.33;;
52564;SDS011;38460;53.106;7.004;2022-07-09T14:39:26;3.30;;;1.13;;
52564;SDS011;38460;53.106;7.004;2022-07-09T14:41:52;3.97;;;1.40;;
52564;SDS011;38460;53.106;7.004;2022-07-09T14:44:17;2.90;;;1.10;;
52564;SDS011;38460;53.106;7.004;2022-07-09T14:46:43;7.30;;;1.55;;
52564;SDS011;38460;53.106;7.004;2022-07-09T14:49:09;6.55;;;1.33;;